Time;durP1;ratioP1;P1;durP2;ratioP2;P2;SDS_P1;SDS_P2;PMS_P1;PMS_P2;Temp;Humidity;BMP_temperature;BMP_pressure;BME280_temperature;BME280_humidity;BME280_pressure;Samples;Min_cycle;Max_cycle;Signal;HPM_P1;HPM_P2
2024/03/11 00:01:48;;;;;;;52.90;24.85;;;;;;;6.99;100.00;99634.56;5031998;28;20419;-53
2024/03/11 00:04:16;;;;;;;59.90;24.52;;;;;;;6.98;100.00;99638.47;5026233;28;20056;-53
2024/03/11 00:06:48;;;;;;;60.55;26.35;;;;;;;6.98;100.00;99635.72;5026990;28;20131;-55
2024/03/11 00:09:19;;;;;;;;;;;;;;;6.97;100.00;99631.34;5020290;28;20508;-54
2024/03/11 00:11:56;;;;;;;66.00;24.60;;;;;;;6.96;100.00;99643.50;5023654;28;19928;-54
2024/03/11 00:14:33;;;;;;;63.03;24.17;;;;;;;6.94;100.00;99638.34;5037708;28;20404;-55
2024/03/11 00:17:03;;;;;;;57.95;24.48;;;;;;;6.94;100.00;99645.78;5047200;28;20046;-55
2024/03/11 00:19:31;;;;;;;58.10;24.63;;;;;;;6.95;100.00;99644.66;5030156;28;20067;-57
2024/03/11 00:22:02;;;;;;;54.55;24.30;;;;;;;6.95;100.00;99653.72;5028962;28;20518;-55
2024/03/11 00:24:30;;;;;;;59.53;23.95;;;;;;;6.95;100.00;99650.16;5029721;28;20045;-52
2024/03/11 00:27:03;;;;;;;60.30;26.48;;;;;;;6.95;100.00;99655.66;5031047;28;20518;-53
2024/03/11 00:29:31;;;;;;;65.47;24.83;;;;;;;6.96;100.00;99666.34;5030362;28;20411;-55
2024/03/11 00:31:58;;;;;;;62.20;24.75;;;;;;;6.96;100.00;99662.78;5030610;28;20049;-55
2024/03/11 00:34:27;;;;;;;56.22;23.10;;;;;;;6.95;100.00;99658.41;5029463;28;20041;-58
2024/03/11 00:36:55;;;;;;;56.95;24.30;;;;;;;6.95;100.00;99664.72;5016540;28;20049;-58
2024/03/11 00:39:22;;;;;;;51.78;21.27;;;;;;;6.96;100.00;99662.78;5029254;28;20049;-57
2024/03/11 00:41:51;;;;;;;53.35;24.08;;;;;;;6.95;100.00;99661.16;5029916;28;20416;-53
2024/03/11 00:44:22;;;;;;;53.20;22.77;;;;;;;6.94;100.00;99671.34;5042614;28;20056;-57
2024/03/11 00:46:50;;;;;;;48.55;23.02;;;;;;;6.96;100.00;99673.78;5025711;28;20033;-58
2024/03/11 00:49:19;;;;;;;51.65;24.48;;;;;;;6.96;100.00;99676.53;5028696;28;20125;-53
2024/03/11 00:51:47;;;;;;;48.00;22.48;;;;;;;6.96;100.00;99687.53;5029457;28;20384;-53
2024/03/11 00:54:14;;;;;;;55.08;22.67;;;;;;;6.96;100.00;99685.59;5028784;28;20060;-53
2024/03/11 00:56:43;;;;;;;51.28;22.55;;;;;;;6.97;100.00;99686.38;5028684;28;20049;-54
2024/03/11 00:59:11;;;;;;;54.58;22.48;;;;;;;6.96;100.00;99687.53;5025144;28;20057;-55
2024/03/11 01:01:38;;;;;;;50.47;21.63;;;;;;;6.95;100.00;99691.44;5029030;28;20057;-55
2024/03/11 01:04:09;;;;;;;49.22;22.42;;;;;;;6.93;100.00;99686.28;5028361;28;20050;-55
2024/03/11 01:06:36;;;;;;;64.88;24.33;;;;;;;6.93;100.00;99682.72;5021639;28;20067;-57
2024/03/11 01:09:04;;;;;;;51.83;23.38;;;;;;;6.93;100.00;99683.53;5027333;28;20053;-55
2024/03/11 01:11:31;;;;;;;58.72;21.23;;;;;;;6.91;100.00;99685.03;5024815;28;20068;-54
2024/03/11 01:13:59;;;;;;;39.13;17.42;;;;;;;6.92;100.00;99700.38;5029374;28;20056;-54
2024/03/11 01:16:26;;;;;;;39.25;18.42;;;;;;;6.90;100.00;99692.47;5029123;28;20045;-53
2024/03/11 01:18:54;;;;;;;37.78;18.70;;;;;;;6.90;100.00;99691.66;5028611;28;20128;-56
2024/03/11 01:21:21;;;;;;;46.53;18.88;;;;;;;6.90;100.00;99697.16;5028293;28;20080;-55
2024/03/11 01:23:49;;;;;;;40.72;17.15;;;;;;;6.87;100.00;99681.34;5028699;28;20045;-52
2024/03/11 01:26:16;;;;;;;41.70;18.38;;;;;;;6.88;100.00;99692.03;5029065;28;20060;-55
2024/03/11 01:28:43;;;;;;;39.70;18.55;;;;;;;6.88;100.00;99699.47;5023136;28;20052;-54
2024/03/11 01:31:11;;;;;;;42.63;20.30;;;;;;;6.88;100.00;99693.97;5028292;28;20407;-56
2024/03/11 01:33:38;;;;;;;38.78;17.63;;;;;;;6.88;100.00;99694.78;5028183;28;20046;-55
2024/03/11 01:36:08;;;;;;;37.38;17.75;;;;;;;6.89;100.00;99701.06;5028545;28;20049;-53
2024/03/11 01:38:35;;;;;;;29.15;15.30;;;;;;;6.89;100.00;99701.06;5028392;28;20038;-55
2024/03/11 01:41:03;;;;;;;39.20;16.80;;;;;;;6.89;100.00;99706.56;5028348;28;20079;-54
2024/03/11 01:43:30;;;;;;;42.35;16.67;;;;;;;6.87;100.00;99708.88;5028129;28;20050;-56
2024/03/11 01:45:59;;;;;;;33.03;15.20;;;;;;;6.88;100.00;99696.72;5028692;28;20060;-56
2024/03/11 01:48:26;;;;;;;36.90;16.30;;;;;;;6.88;100.00;99704.97;5027688;28;20061;-55
2024/03/11 01:50:54;;;;;;;44.35;17.17;;;;;;;6.86;100.00;99704.53;5028405;28;20715;-56
2024/03/11 01:53:22;;;;;;;37.50;16.58;;;;;;;6.87;100.00;99706.09;5027343;28;20033;-57
2024/03/11 01:55:49;;;;;;;38.15;17.70;;;;;;;6.85;100.00;99711.16;5010433;28;20053;-56
2024/03/11 01:58:19;;;;;;;31.50;16.05;;;;;;;6.84;100.00;99715.06;5010217;28;20069;-57
2024/03/11 02:00:46;;;;;;;40.75;17.48;;;;;;;6.84;100.00;99717.81;5027698;28;20053;-53
2024/03/11 02:03:14;;;;;;;44.17;17.00;;;;;;;6.85;100.00;99716.66;5028186;28;20053;-55
2024/03/11 02:05:42;;;;;;;40.80;17.83;;;;;;;6.85;100.00;99722.16;5010558;28;20056;-52
2024/03/11 02:08:10;;;;;;;42.63;18.23;;;;;;;6.85;100.00;99711.16;5027298;28;20053;-55
2024/03/11 02:10:37;;;;;;;39.90;17.38;;;;;;;6.84;100.00;99718.59;5026783;28;20045;-57
2024/03/11 02:13:06;;;;;;;41.38;17.73;;;;;;;6.83;100.00;99718.97;5027070;28;20057;-53
2024/03/11 02:15:34;;;;;;;40.67;19.25;;;;;;;6.85;100.00;99722.16;5026901;28;20430;-55
2024/03/11 02:18:01;;;;;;;45.35;18.30;;;;;;;6.85;100.00;99722.16;5027442;28;20086;-56
2024/03/11 02:20:29;;;;;;;31.85;18.17;;;;;;;6.86;100.00;99729.28;5024894;28;20052;-55
2024/03/11 02:22:57;;;;;;;45.88;18.73;;;;;;;6.86;100.00;99721.81;5019886;28;20045;-55
2024/03/11 02:25:30;;;;;;;43.83;17.83;;;;;;;6.86;100.00;99729.28;5027422;28;20045;-56
2024/03/11 02:28:00;;;;;;;40.85;18.10;;;;;;;6.87;100.00;99736.38;5025060;28;20057;-57
2024/03/11 02:30:27;;;;;;;37.13;18.63;;;;;;;6.86;100.00;99729.28;5027194;28;20045;-53
2024/03/11 02:32:55;;;;;;;33.03;18.10;;;;;;;6.86;100.00;99735.56;5027236;28;20511;-54
2024/03/11 02:35:23;;;;;;;37.63;18.75;;;;;;;6.86;100.00;99734.78;5027470;28;20403;-56
2024/03/11 02:37:50;;;;;;;46.22;20.10;;;;;;;6.85;100.00;99738.69;5009586;28;20053;-54
2024/03/11 02:40:26;;;;;;;44.78;18.80;;;;;;;6.85;100.00;99733.19;5027112;28;20045;-54
2024/03/11 02:42:54;;;;;;;38.40;18.85;;;;;;;6.84;100.00;99732.38;5026464;28;20054;-55
2024/03/11 02:45:25;;;;;;;41.50;19.13;;;;;;;6.85;100.00;99736.72;5009384;28;20049;-55
2024/03/11 02:47:53;;;;;;;41.17;18.17;;;;;;;6.85;100.00;99739.47;5027647;28;20056;-55
2024/03/11 02:50:21;;;;;;;40.05;18.33;;;;;;;6.85;100.00;99738.69;5037886;28;20053;-52
2024/03/11 02:52:48;;;;;;;44.55;19.08;;;;;;;6.85;100.00;99745.00;5017878;28;20041;-56
2024/03/11 02:55:18;;;;;;;43.42;19.98;;;;;;;6.84;100.00;99743.38;5010153;28;20057;-55
2024/03/11 02:57:48;;;;;;;41.78;18.17;;;;;;;6.85;100.00;99749.69;5026473;28;20045;-56
2024/03/11 03:02:42;;;;;;;43.70;18.77;;;;;;;6.85;100.00;99749.69;5123902;22;20056;-56
2024/03/11 03:05:12;;;;;;;41.78;17.73;;;;;;;6.86;100.00;99754.03;5067888;28;20047;-55
2024/03/11 03:07:39;;;;;;;41.05;19.50;;;;;;;6.87;100.00;99758.38;5037507;28;20072;-55
2024/03/11 03:10:07;;;;;;;43.60;19.05;;;;;;;6.89;100.00;99761.59;5055552;28;20429;-54
2024/03/11 03:12:35;;;;;;;45.50;18.92;;;;;;;6.89;100.00;99756.09;5064150;28;20048;-55
2024/03/11 03:15:05;;;;;;;42.97;17.80;;;;;;;6.87;100.00;99759.19;5061978;28;20053;-55
2024/03/11 03:17:33;;;;;;;46.90;17.90;;;;;;;6.88;100.00;99762.75;5029007;28;20053;-55
2024/03/11 03:20:01;;;;;;;36.80;18.50;;;;;;;6.87;100.00;99761.13;5057114;28;20057;-55
2024/03/11 03:22:28;;;;;;;42.97;19.25;;;;;;;6.88;100.00;99765.50;5054158;28;20441;-50
2024/03/11 03:24:56;;;;;;;51.28;21.27;;;;;;;6.89;100.00;99780.84;5052932;28;20045;-55
2024/03/11 03:27:25;;;;;;;42.50;19.95;;;;;;;6.89;100.00;99767.91;5050891;28;20056;-55
2024/03/11 03:29:53;;;;;;;44.92;19.20;;;;;;;6.89;100.00;99772.59;5048068;28;20422;-55
2024/03/11 03:32:22;;;;;;;39.22;18.60;;;;;;;6.88;100.00;99766.31;5055103;28;20049;-55
2024/03/11 03:34:50;;;;;;;40.22;18.95;;;;;;;6.87;100.00;99766.63;5049260;28;20063;-54
2024/03/11 03:37:18;;;;;;;42.95;18.88;;;;;;;6.86;100.00;99765.84;5054358;28;20045;-54
2024/03/11 03:39:45;;;;;;;36.65;19.40;;;;;;;6.86;100.00;99765.06;5052351;28;20037;-55
2024/03/11 03:42:13;;;;;;;48.50;19.88;;;;;;;6.86;100.00;99767.81;5051825;28;20045;-53
2024/03/11 03:44:40;;;;;;;42.70;19.13;;;;;;;6.85;100.00;99766.19;5052280;28;20036;-55
2024/03/11 03:47:08;;;;;;;46.47;20.65;;;;;;;6.83;100.00;99769.25;5052698;28;20052;-56
2024/03/11 03:49:36;;;;;;;37.65;18.30;;;;;;;6.82;100.00;99762.19;5060670;28;20076;-55
2024/03/11 03:52:05;;;;;;;48.05;20.58;;;;;;;6.84;100.00;99761.81;5056028;28;20056;-52
2024/03/11 03:54:32;;;;;;;44.13;18.73;;;;;;;6.82;100.00;99772.38;5063850;28;20041;-55
2024/03/11 03:57:00;;;;;;;45.42;19.15;;;;;;;6.82;100.00;99772.38;5045643;28;20068;-55
2024/03/11 03:59:28;;;;;;;40.97;18.23;;;;;;;6.81;100.00;99782.56;5065098;28;20050;-55
2024/03/11 04:01:55;;;;;;;33.80;17.63;;;;;;;6.81;100.00;99776.25;5061043;28;20067;-54
2024/03/11 04:04:24;;;;;;;45.85;19.45;;;;;;;6.80;100.00;99786.47;5066444;28;20045;-50
2024/03/11 04:06:51;;;;;;;43.40;18.48;;;;;;;6.81;100.00;99784.50;5048263;28;20041;-55
2024/03/11 04:09:18;;;;;;;42.33;18.70;;;;;;;6.82;100.00;99789.69;5046876;28;20044;-55
2024/03/11 04:11:46;;;;;;;44.92;18.23;;;;;;;6.82;100.00;99781.44;5057767;28;20052;-54
2024/03/11 04:14:13;;;;;;;39.65;16.80;;;;;;;6.81;100.00;99790.81;5043379;28;20056;-52
2024/03/11 04:16:42;;;;;;;42.53;19.55;;;;;;;6.79;100.00;99784.88;5055564;28;20047;-55
2024/03/11 04:19:09;;;;;;;48.53;17.63;;;;;;;6.79;100.00;99795.88;5051299;28;20044;-53
2024/03/11 04:21:37;;;;;;;43.10;19.77;;;;;;;6.79;100.00;99798.63;5061886;28;20387;-53
2024/03/11 04:24:05;;;;;;;43.58;18.08;;;;;;;6.79;100.00;99797.81;5058503;28;20064;-53
2024/03/11 04:26:33;;;;;;;46.15;18.65;;;;;;;6.79;100.00;99800.56;5068160;28;20060;-52
2024/03/11 04:29:01;;;;;;;49.13;19.17;;;;;;;6.80;100.00;99804.94;5061736;28;20049;-53
2024/03/11 04:31:29;;;;;;;42.55;19.55;;;;;;;6.80;100.00;99804.94;5065719;28;20052;-54
2024/03/11 04:33:56;;;;;;;44.40;19.58;;;;;;;6.80;100.00;99802.19;5066846;28;20052;-52
2024/03/11 04:36:23;;;;;;;42.78;22.23;;;;;;;6.80;100.00;99815.94;5049085;28;20478;-56
2024/03/11 04:38:51;;;;;;;42.10;18.10;;;;;;;6.79;100.00;99808.81;5052515;28;20056;-55
2024/03/11 04:41:18;;;;;;;38.78;18.10;;;;;;;6.78;100.00;99816.25;5064242;28;20045;-57
2024/03/11 04:43:46;;;;;;;42.70;19.38;;;;;;;6.80;100.00;99824.19;5059502;28;20053;-57
2024/03/11 04:46:13;;;;;;;47.17;19.10;;;;;;;6.80;100.00;99826.94;5060516;28;20056;-53
2024/03/11 04:48:41;;;;;;;50.00;18.60;;;;;;;6.79;100.00;99828.88;5065639;28;20049;-53
2024/03/11 04:51:08;;;;;;;46.70;20.38;;;;;;;6.79;100.00;99820.63;5061297;28;20066;-56
2024/03/11 04:53:37;;;;;;;42.80;19.30;;;;;;;6.82;100.00;99827.38;5061288;28;20059;-49
2024/03/11 04:56:06;;;;;;;49.92;20.98;;;;;;;6.80;100.00;99825.00;5069474;28;20496;-55
2024/03/11 04:58:35;;;;;;;46.38;19.52;;;;;;;6.82;100.00;99836.47;5065856;28;20053;-55
2024/03/11 05:01:05;;;;;;;49.97;17.92;;;;;;;6.84;100.00;99833.34;5054598;28;20044;-50
2024/03/11 05:03:32;;;;;;;50.45;20.27;;;;;;;6.85;100.00;99833.03;5064462;28;20049;-51
2024/03/11 05:06:00;;;;;;;53.35;20.50;;;;;;;6.86;100.00;99828.31;5065949;28;20049;-53
2024/03/11 05:08:28;;;;;;;50.20;20.27;;;;;;;6.83;100.00;99835.28;5062438;28;20052;-54
2024/03/11 05:10:58;;;;;;;56.17;21.42;;;;;;;6.82;100.00;99839.19;5037185;28;20060;-52
2024/03/11 05:13:26;;;;;;;57.03;21.23;;;;;;;6.82;100.00;99838.41;5033323;28;20053;-52
2024/03/11 05:15:53;;;;;;;43.65;22.05;;;;;;;6.81;100.00;99842.28;5064417;28;20048;-54
2024/03/11 05:18:22;;;;;;;48.53;19.45;;;;;;;6.79;100.00;99848.13;5064017;28;20406;-54
2024/03/11 05:20:49;;;;;;;41.88;20.17;;;;;;;6.79;100.00;99844.56;5060638;28;20057;-53
2024/03/11 05:23:17;;;;;;;49.17;21.48;;;;;;;6.78;100.00;99843.00;5061353;28;20056;-52
2024/03/11 05:25:45;;;;;;;43.72;20.83;;;;;;;6.79;100.00;99848.13;5058764;28;20052;-49
2024/03/11 05:28:12;;;;;;;52.42;21.48;;;;;;;6.78;100.00;99852.03;5052145;28;20045;-53
2024/03/11 05:30:40;;;;;;;64.82;21.67;;;;;;;6.79;100.00;99850.88;5062453;28;20071;-51
2024/03/11 05:33:08;;;;;;;49.75;22.10;;;;;;;6.81;100.00;99858.78;5050676;28;20430;-51
2024/03/11 05:35:36;;;;;;;48.97;20.40;;;;;;;6.81;100.00;99850.53;5069300;28;20070;-52
2024/03/11 05:38:03;;;;;;;52.10;21.83;;;;;;;6.81;100.00;99853.28;5059426;28;20068;-50
2024/03/11 05:40:31;;;;;;;46.83;22.20;;;;;;;6.81;100.00;99861.53;5035808;28;20425;-53
2024/03/11 05:42:58;;;;;;;55.40;22.85;;;;;;;6.82;100.00;99860.41;5051096;28;20045;-51
2024/03/11 05:45:25;;;;;;;47.90;19.88;;;;;;;6.83;100.00;99867.53;5058437;28;20057;-54
2024/03/11 05:47:57;;;;;;;51.25;22.40;;;;;;;6.83;100.00;99862.03;5066708;28;20406;-49
2024/03/11 05:50:26;;;;;;;59.30;21.10;;;;;;;6.84;100.00;99863.59;5060529;28;20056;-50
2024/03/11 05:52:54;;;;;;;51.17;21.63;;;;;;;6.84;100.00;99863.59;5057894;28;20410;-47
2024/03/11 05:55:22;;;;;;;45.13;20.40;;;;;;;6.85;100.00;99870.72;5058568;28;20053;-51
2024/03/11 05:57:50;;;;;;;47.50;21.23;;;;;;;6.84;100.00;99869.91;5065201;28;20456;-49
2024/03/11 06:00:17;;;;;;;66.22;24.83;;;;;;;6.86;100.00;99872.34;5060074;28;20055;-49
2024/03/11 06:02:46;;;;;;;48.03;21.85;;;;;;;6.86;100.00;99869.59;5057837;28;20055;-52
2024/03/11 06:05:14;;;;;;;55.40;23.73;;;;;;;6.86;100.00;99872.34;5061482;28;20045;-52
2024/03/11 06:07:42;;;;;;;54.33;21.85;;;;;;;6.87;100.00;99873.94;5049232;28;20045;-55
2024/03/11 06:10:10;;;;;;;49.90;21.33;;;;;;;6.87;100.00;99873.94;5053048;28;20068;-51
2024/03/11 06:12:38;;;;;;;59.17;21.90;;;;;;;6.87;100.00;99876.69;5037562;28;20058;-52
2024/03/11 06:15:06;;;;;;;61.85;24.75;;;;;;;6.86;100.00;99880.59;5055033;28;20764;-48
2024/03/11 06:17:33;;;;;;;59.58;21.63;;;;;;;6.84;100.00;99885.63;5060096;28;20051;-52
2024/03/11 06:20:09;;;;;;;53.40;22.92;;;;;;;6.84;100.00;99889.19;5052030;28;20048;-56
2024/03/11 06:22:39;;;;;;;55.85;21.00;;;;;;;6.83;100.00;99890.31;5045230;28;20102;-50
2024/03/11 06:25:07;;;;;;;53.95;22.85;;;;;;;6.83;100.00;99890.31;5061837;28;20041;-54
2024/03/11 06:27:36;;;;;;;45.58;22.38;;;;;;;6.84;100.00;99896.63;5053375;28;20053;-50
2024/03/11 06:30:05;;;;;;;54.03;23.10;;;;;;;6.83;100.00;99890.31;5053853;28;20059;-54
2024/03/11 06:32:33;;;;;;;63.05;25.40;;;;;;;6.84;100.00;99896.63;5043812;28;20059;-55
2024/03/11 06:35:01;;;;;;;54.25;22.73;;;;;;;6.84;100.00;99896.63;5060430;28;20049;-54
2024/03/11 06:37:28;;;;;;;48.92;24.13;;;;;;;6.83;100.00;99903.28;5067719;28;20056;-54
2024/03/11 06:39:55;;;;;;;54.80;22.45;;;;;;;6.83;100.00;99895.03;5054791;28;20056;-51
2024/03/11 06:42:23;;;;;;;46.30;23.40;;;;;;;6.83;100.00;99906.03;5047647;28;20498;-53
2024/03/11 06:44:50;;;;;;;53.30;24.15;;;;;;;6.84;100.00;99902.13;5054565;28;20048;-53
2024/03/11 06:47:17;;;;;;;52.15;23.55;;;;;;;6.86;100.00;99905.38;5047562;28;20057;-55
2024/03/11 06:49:45;;;;;;;55.00;22.15;;;;;;;6.85;100.00;99904.56;5051424;28;20045;-51
2024/03/11 06:52:12;;;;;;;53.92;22.20;;;;;;;6.85;100.00;99912.81;5049987;28;20059;-58
2024/03/11 06:54:40;;;;;;;47.08;22.70;;;;;;;6.85;100.00;99920.25;5066966;28;20083;-53
2024/03/11 06:57:10;;;;;;;53.83;23.02;;;;;;;6.84;100.00;99919.44;5049683;28;20044;-55
2024/03/11 06:59:37;;;;;;;60.38;21.88;;;;;;;6.85;100.00;99928.50;5051698;28;20032;-54
2024/03/11 07:02:06;;;;;;;52.40;23.40;;;;;;;6.86;100.00;99932.88;5051939;28;20068;-57
2024/03/11 07:04:33;;;;;;;51.20;23.63;;;;;;;6.87;100.00;99932.53;5062933;28;20041;-53
2024/03/11 07:07:00;;;;;;;47.80;21.23;;;;;;;6.88;100.00;99942.41;5053131;28;20048;-54
2024/03/11 07:09:28;;;;;;;51.00;22.33;;;;;;;6.88;100.00;99947.91;5050987;28;20128;-53
2024/03/11 07:11:56;;;;;;;51.30;22.65;;;;;;;6.91;100.00;99940.91;5053902;28;20048;-52
2024/03/11 07:14:24;;;;;;;52.88;22.10;;;;;;;6.93;100.00;99939.44;5055247;28;20052;-55
2024/03/11 07:16:53;;;;;;;43.45;21.80;;;;;;;6.93;100.00;99949.63;5060088;28;20161;-54
2024/03/11 07:19:27;;;;;;;56.05;23.75;;;;;;;6.93;100.00;99938.63;5059486;28;20041;-55
2024/03/11 07:21:54;;;;;;;52.22;23.45;;;;;;;6.92;100.00;99934.25;5052750;28;20060;-57
2024/03/11 07:24:22;;;;;;;51.70;22.13;;;;;;;6.94;100.00;99951.22;5056931;28;20060;-55
2024/03/11 07:26:49;;;;;;;55.22;25.00;;;;;;;6.95;100.00;99948.13;5064488;28;20056;-54
2024/03/11 07:29:17;;;;;;;58.47;24.33;;;;;;;6.94;100.00;99951.22;5065572;28;20063;-52
2024/03/11 07:31:44;;;;;;;55.70;24.10;;;;;;;6.96;100.00;99954.44;5057310;28;20123;-49
2024/03/11 07:34:12;;;;;;;53.63;24.05;;;;;;;6.97;100.00;99961.53;5058405;28;20424;-55
2024/03/11 07:36:40;;;;;;;58.38;24.67;;;;;;;6.97;100.00;99967.03;5052662;28;20430;-52
2024/03/11 07:39:10;;;;;;;49.65;23.55;;;;;;;6.99;100.00;99973.81;5047943;28;20402;-54
2024/03/11 07:41:38;;;;;;;59.33;27.65;;;;;;;6.99;100.00;99978.53;5066654;28;20040;-54
2024/03/11 07:44:06;;;;;;;55.00;23.45;;;;;;;6.98;100.00;99985.97;5066551;28;20053;-52
2024/03/11 07:46:35;;;;;;;60.17;24.42;;;;;;;6.99;100.00;99989.53;5050432;28;20036;-53
2024/03/11 07:49:05;;;;;;;67.43;27.33;;;;;;;7.00;100.00;99985.63;5070794;28;20048;-50
2024/03/11 07:51:34;;;;;;;66.10;25.90;;;;;;;7.02;100.00;99997.09;5043012;28;20044;-55
2024/03/11 07:54:01;;;;;;;59.30;26.27;;;;;;;7.02;100.00;99995.16;5064585;28;20048;-54
2024/03/11 07:56:28;;;;;;;67.07;29.33;;;;;;;7.03;100.00;99998.72;5070103;28;20049;-55
2024/03/11 07:58:56;;;;;;;68.72;26.27;;;;;;;7.04;100.00;100008.59;5070593;28;20052;-53
2024/03/11 08:01:26;;;;;;;64.97;26.13;;;;;;;7.06;100.00;100022.81;5070519;28;20064;-58
2024/03/11 08:03:53;;;;;;;65.72;30.23;;;;;;;7.07;100.00;100014.19;5046803;28;20053;-56
2024/03/11 08:06:21;;;;;;;76.65;30.85;;;;;;;7.09;100.00;100022.94;5065071;28;20068;-57
2024/03/11 08:08:52;;;;;;;84.18;32.30;;;;;;;7.11;100.00;100019.84;5051543;28;20347;-55
2024/03/11 08:11:20;;;;;;;65.57;29.80;;;;;;;7.10;100.00;100020.97;5070104;28;20036;-57
2024/03/11 08:13:47;;;;;;;63.17;27.80;;;;;;;7.12;100.00;100013.22;5058637;28;20045;-58
2024/03/11 08:16:15;;;;;;;65.18;27.27;;;;;;;7.13;100.00;100014.78;5049722;28;20071;-55
2024/03/11 08:18:42;;;;;;;73.70;30.25;;;;;;;7.12;100.00;100018.72;5050385;28;20041;-55
2024/03/11 08:21:10;;;;;;;60.05;26.02;;;;;;;7.11;100.00;100017.91;5051502;28;20044;-61
2024/03/11 08:23:43;;;;;;;65.88;25.73;;;;;;;7.10;100.00;100013.53;5065288;28;20505;-61
2024/03/11 08:26:11;;;;;;;70.65;26.17;;;;;;;7.11;100.00;100015.16;5061449;28;20048;-59
2024/03/11 08:28:39;;;;;;;66.03;26.05;;;;;;;7.13;100.00;100017.56;5064235;28;20052;-58
2024/03/11 08:31:07;;;;;;;64.60;26.95;;;;;;;7.11;100.00;100009.66;5052918;28;20090;-57
2024/03/11 08:33:38;;;;;;;70.85;28.52;;;;;;;7.12;100.00;100013.97;5050157;28;20057;-60
2024/03/11 08:36:06;;;;;;;61.80;26.80;;;;;;;7.13;100.00;100014.78;5052838;28;20040;-57
2024/03/11 08:38:35;;;;;;;60.55;26.05;;;;;;;7.14;100.00;100016.41;5057565;28;20049;-58
2024/03/11 08:41:05;;;;;;;58.72;27.45;;;;;;;7.15;100.00;100015.25;5067680;28;20500;-58
2024/03/11 08:43:33;;;;;;;52.95;24.38;;;;;;;7.16;100.00;100020.44;5057116;28;20414;-58
2024/03/11 08:46:00;;;;;;;56.85;25.20;;;;;;;7.18;100.00;100031.09;5063201;28;20053;-57
2024/03/11 08:48:30;;;;;;;66.28;27.58;;;;;;;7.22;100.00;100032.03;5050111;28;20041;-60
2024/03/11 08:51:00;;;;;;;52.55;25.58;;;;;;;7.25;100.00;100032.16;5051320;28;20148;-60
2024/03/11 08:53:28;;;;;;;61.42;25.35;;;;;;;7.26;100.00;100036.50;5060978;28;20164;-59
2024/03/11 08:55:56;;;;;;;67.10;26.15;;;;;;;7.29;100.00;100040.53;5061318;28;20045;-58
2024/03/11 08:58:24;;;;;;;64.28;26.65;;;;;;;7.33;100.00;100049.75;5052449;28;20049;-58
2024/03/11 09:00:52;;;;;;;70.20;26.38;;;;;;;7.35;100.00;100047.44;5055145;28;20053;-59
2024/03/11 09:03:23;;;;;;;60.72;25.50;;;;;;;7.37;100.00;100045.16;5043486;28;20037;-58
2024/03/11 09:05:51;;;;;;;66.82;26.55;;;;;;;7.34;100.00;100045.81;5027572;28;20037;-58
2024/03/11 09:08:18;;;;;;;77.80;27.90;;;;;;;7.36;100.00;100052.59;5025252;28;20060;-58
2024/03/11 09:10:45;;;;;;;53.78;26.23;;;;;;;7.39;100.00;100045.59;5029981;28;20056;-58
2024/03/11 09:13:13;;;;;;;51.15;22.33;;;;;;;7.42;100.00;100049.63;5037004;28;20049;-59
2024/03/11 09:15:44;;;;;;;69.72;26.67;;;;;;;7.47;100.00;100041.13;5030200;28;20403;-58
2024/03/11 09:18:12;;;;;;;63.22;25.45;;;;;;;7.48;100.00;100043.56;5021130;28;20502;-60
2024/03/11 09:20:40;;;;;;;52.05;23.55;;;;;;;7.51;100.00;100053.91;5045827;28;20036;-56
2024/03/11 09:23:08;;;;;;;59.17;24.50;;;;;;;7.52;100.00;100046.44;5033236;28;20056;-58
2024/03/11 09:25:36;;;;;;;66.13;26.80;;;;;;;7.52;100.00;100058.25;5018662;28;21805;-61
2024/03/11 09:28:08;;;;;;;60.58;26.05;;;;;;;7.52;100.00;100055.50;5039308;28;20395;-58
2024/03/11 09:30:40;;;;;;;54.13;25.27;;;;;;;7.57;100.00;100046.22;5010942;28;20476;-55
2024/03/11 09:33:11;;;;;;;53.97;26.65;;;;;;;7.59;100.00;100055.75;5028469;28;20047;-58
2024/03/11 09:35:40;;;;;;;54.97;24.15;;;;;;;7.64;100.00;100066.56;5036388;28;20052;-59
2024/03/11 09:38:07;;;;;;;53.97;23.65;;;;;;;7.68;100.00;100061.94;5042007;28;20049;-61
2024/03/11 09:40:36;;;;;;;58.90;26.15;;;;;;;7.68;100.00;100064.72;5032182;28;20053;-60
2024/03/11 09:43:05;;;;;;;50.15;25.55;;;;;;;7.70;100.00;100061.63;5045073;28;20049;-56
2024/03/11 09:45:34;;;;;;;55.53;26.33;;;;;;;7.71;100.00;100058.50;5047459;28;20052;-60
2024/03/11 09:48:04;;;;;;;48.13;22.13;;;;;;;7.73;100.00;100064.47;5048194;28;20053;-58
2024/03/11 09:50:35;;;;;;;52.53;23.02;;;;;;;7.72;100.00;100057.38;5029759;28;20434;-57
2024/03/11 09:53:12;;;;;;;51.22;24.23;;;;;;;7.74;100.00;100068.84;5034417;28;20041;-58
2024/03/11 09:55:43;;;;;;;48.88;21.77;;;;;;;7.74;100.00;100068.03;5023913;28;20553;-58
2024/03/11 09:58:15;;;;;;;50.97;22.27;;;;;;;7.75;100.00;100081.50;5032620;28;20057;-58
2024/03/11 10:00:59;;;;;;;51.45;23.75;;;;;;;7.78;100.00;100094.56;5029917;28;20053;-59
2024/03/11 10:03:27;;;;;;;50.42;24.10;;;;;;;7.82;100.00;100098.25;5028734;28;20053;-58
2024/03/11 10:05:58;;;;;;;60.15;24.52;;;;;;;7.84;100.00;100095.97;5035251;28;20061;-58
2024/03/11 10:08:30;;;;;;;63.50;27.02;;;;;;;7.88;100.00;100102.41;5027572;28;20037;-58
2024/03/11 10:11:14;;;;;;;51.90;24.25;;;;;;;7.91;100.00;100111.94;5025446;28;20050;-57
2024/03/11 10:13:42;;;;;;;49.92;22.85;;;;;;;7.94;100.00;100106.53;5027303;28;20512;-56
2024/03/11 10:16:24;;;;;;;55.63;21.92;;;;;;;7.97;100.00;100100.34;5026732;28;20049;-57
2024/03/11 10:18:52;;;;;;;57.40;23.17;;;;;;;8.02;100.00;100106.78;5041135;28;20037;-58
2024/03/11 10:21:20;;;;;;;58.00;23.00;;;;;;;8.06;100.00;100107.69;5033065;28;20073;-60
2024/03/11 10:23:48;;;;;;;59.85;23.48;;;;;;;8.07;100.00;100112.06;5029036;28;20128;-59
2024/03/11 10:26:24;;;;;;;53.78;23.05;;;;;;;8.08;100.00;100111.72;5030661;28;20786;-60
2024/03/11 10:28:56;;;;;;;47.38;22.42;;;;;;;8.09;100.00;100116.09;5027786;28;20056;-62
2024/03/11 10:31:33;;;;;;;52.83;24.65;;;;;;;8.11;100.00;100121.25;5031285;28;20049;-60
2024/03/11 10:34:20;;;;;;;58.03;24.40;;;;;;;8.11;100.00;100122.06;5026758;28;20045;-57
2024/03/11 10:36:56;;;;;;;49.30;22.67;;;;;;;8.10;100.00;100119.66;5040217;28;20049;-59
2024/03/11 10:39:30;;;;;;;51.38;24.30;;;;;;;8.06;100.00;100119.53;5033502;28;20053;-60
2024/03/11 10:42:01;;;;;;;76.10;24.67;;;;;;;8.04;100.00;100129.28;5036743;28;20060;-57
2024/03/11 10:44:29;;;;;;;53.65;24.45;;;;;;;8.05;100.00;100141.94;5029380;28;20057;-58
2024/03/11 10:47:14;;;;;;;54.13;25.50;;;;;;;8.05;100.00;100133.66;5030877;28;20045;-57
2024/03/11 10:49:47;;;;;;;48.90;22.00;;;;;;;8.05;100.00;100136.44;5039928;28;20424;-60
2024/03/11 10:52:20;;;;;;;55.40;23.00;;;;;;;8.05;100.00;100145.47;5032367;28;20438;-60
2024/03/11 10:54:50;;;;;;;50.40;23.73;;;;;;;8.05;100.00;100142.72;5021679;28;20038;-60
2024/03/11 10:57:39;;;;;;;48.00;21.70;;;;;;;8.06;100.00;100154.56;5038556;28;20053;-57
2024/03/11 11:00:19;;;;;;;55.33;21.15;;;;;;;8.07;100.00;100154.22;5011220;28;20072;-56
2024/03/11 11:02:54;;;;;;;51.63;21.77;;;;;;;8.08;100.00;100149.50;5057630;28;20052;-63
2024/03/11 11:05:24;;;;;;;53.63;23.33;;;;;;;8.12;100.00;100147.69;5055970;28;20059;-62
2024/03/11 11:07:53;;;;;;;52.90;21.70;;;;;;;8.15;100.00;100147.00;5053539;28;20051;-60
2024/03/11 11:10:29;;;;;;;53.28;23.60;;;;;;;8.17;100.00;100150.22;5052195;28;20055;-61
2024/03/11 11:13:01;;;;;;;52.42;22.73;;;;;;;8.20;100.00;100149.53;5047475;28;20060;-55
2024/03/11 11:15:29;;;;;;;49.67;21.13;;;;;;;8.23;100.00;100151.59;5058226;28;20040;-60
2024/03/11 11:17:57;;;;;;;46.10;22.05;;;;;;;8.26;100.00;100156.44;5046987;28;20466;-58
2024/03/11 11:20:31;;;;;;;49.95;23.95;;;;;;;8.28;100.00;100154.97;5046184;28;20056;-58
2024/03/11 11:23:00;;;;;;;55.17;24.23;;;;;;;8.33;100.00;100156.69;5056643;28;20053;-59
2024/03/11 11:25:37;;;;;;;42.67;22.70;;;;;;;8.40;100.00;100156.91;5047336;28;20040;-57